EDDM

Munich International Airport

Munich, Germany
METAR EDDM 131050Z 08013KT 9999 SCT014 BKN020 M01/M03 Q1015 R88/190095 NOSIG
Observed Flight Rules
Dec-13 @ 10:50 UTC (45 minutes ago) Marginal Visual Flight Rules
Wind Visibility Clouds
80° at 13 knots 10,000+ meters
  • Scattered at 1,400' AGL
  • Broken at 2,000' AGL
Temperatures Readings
Current -1°C / 30°F
Dewpoint -3°C / 27°F
Humidity 86%
Altimeter 29.97" Hg
Pressure 1015 hPa
Elevation 447
METAR EDDM 131050Z 08013KT 9999 SCT014 BKN020 M01/M03 Q1015 R88/190095 NOSIG
Observed Flight Rules
Dec-13 @ 10:50 UTC
(45 minutes ago)
MVFR
Wind Visibility
80° at 13 knots 10,000+ meters
Clouds
  • Scattered at 1,400' AGL
  • Broken at 2,000' AGL
Temperature Dewpoint
-1°C / 30°F -3°C / 27°F
Humidity Altimeter Pressure
86% 29.97" Hg 1015 hPa